createdAt,value
2018-06-22T21:00:20.098Z,9.70
2018-06-22T21:02:49.818Z,9.65
2018-06-22T21:05:19.171Z,9.58
2018-06-22T21:07:48.889Z,9.52
2018-06-22T21:10:18.678Z,9.52
2018-06-22T21:12:48.499Z,9.50
2018-06-22T21:15:17.988Z,9.48
2018-06-22T21:17:47.899Z,9.51
2018-06-22T21:20:17.498Z,9.55
2018-06-22T21:22:47.306Z,9.54
2018-06-22T21:25:17.024Z,9.39
2018-06-22T21:27:51.736Z,9.24
2018-06-22T21:30:26.458Z,9.15
2018-06-22T21:33:01.296Z,9.10
2018-06-22T21:35:35.805Z,9.01
2018-06-22T21:38:10.803Z,8.95
2018-06-22T21:40:40.567Z,8.93
2018-06-22T21:43:10.300Z,8.87
2018-06-22T21:45:40.056Z,8.78
2018-06-22T21:48:09.867Z,8.71
2018-06-22T21:50:39.606Z,8.67
2018-06-22T21:53:09.396Z,8.67
2018-06-22T21:55:39.090Z,8.68
2018-06-22T21:58:08.905Z,8.53
2018-06-22T22:00:38.693Z,8.55
2018-06-22T22:03:08.424Z,8.53
2018-06-22T22:05:38.046Z,8.49
2018-06-22T22:08:07.849Z,8.46
2018-06-22T22:10:42.499Z,8.44
2018-06-22T22:13:12.283Z,8.47
2018-06-22T22:15:41.991Z,8.35
2018-06-22T22:18:11.663Z,8.36
2018-06-22T22:20:41.188Z,8.30
2018-06-22T22:23:10.841Z,8.21
2018-06-22T22:25:40.680Z,8.15
2018-06-22T22:28:10.438Z,8.11
2018-06-22T22:30:40.866Z,8.11
2018-06-22T22:33:10.649Z,8.14
2018-06-22T22:35:40.243Z,8.19
2018-06-22T22:38:10.241Z,8.19
2018-06-22T22:40:39.899Z,8.24
2018-06-22T22:43:09.639Z,8.23
2018-06-22T22:45:39.519Z,8.25
2018-06-22T22:48:09.490Z,8.32
2018-06-22T22:50:39.103Z,8.23
2018-06-22T22:53:08.930Z,8.16
2018-06-22T22:55:38.539Z,8.18
2018-06-22T22:58:08.237Z,8.09
2018-06-22T23:00:37.881Z,8.00
2018-06-22T23:03:07.780Z,7.93
2018-06-22T23:05:37.398Z,7.94
2018-06-22T23:08:07.224Z,7.94
2018-06-22T23:10:36.802Z,7.93
2018-06-22T23:13:06.783Z,7.93
2018-06-22T23:15:36.344Z,7.96
2018-06-22T23:18:06.290Z,7.96
2018-06-22T23:20:35.900Z,7.91
2018-06-22T23:23:16.066Z,7.87
2018-06-22T23:25:45.641Z,7.88
2018-06-22T23:28:15.364Z,7.81
2018-06-22T23:30:45.024Z,7.80
2018-06-22T23:33:14.784Z,7.79
2018-06-22T23:35:44.881Z,7.71
2018-06-22T23:38:15.168Z,7.76
2018-06-22T23:40:44.861Z,7.70
2018-06-22T23:43:14.788Z,7.57
2018-06-22T23:45:44.528Z,7.50
2018-06-22T23:48:14.995Z,7.41
2018-06-22T23:50:45.033Z,7.36
2018-06-22T23:53:14.826Z,7.33
2018-06-22T23:55:44.523Z,7.34
2018-06-22T23:58:14.420Z,7.35
